Language selection

My Weather Profile Weather Topics  | 

Lake Nipigon: Past 24 Hour Conditions

 

Wawa Airport

06:00 PM EST 05 February 2023
Disclaimer

This table is a summary of hourly weather conditions for the past 24 hours.
Please note that these observations might not always be representative of weather conditions over their associated marine area.

Date / Time
(EST)
Wind(knots) Conditions Visibility(km) Pressure(kPa) Air tempC) Relative humidity(%) Dew pointC) Wind Chill
05 February 2023
18:00 N 8 Cloudy 24 101.8 -13 72 -17 -20
17:00 N 6 Cloudy 24 101.6 -12 74 -16 -18
16:00 NNE 8 Mostly Cloudy 16 101.4 -12 71 -16 -19
15:00 NNE 8 Light Snow 16 101.3 -11 71 -15 -18
14:00 NNE 9 Light Snow 16 101.3 -11 71 -15 -18
13:00 NE 8 Mostly Cloudy 13 101.2 -11 74 -15 -18
12:00 NNE 10 gust 15 Mostly Cloudy 16 101.2 -12 76 -15 -20
11:00 NE 11 gust 16 Cloudy 16 101.2 -12 77 -15 -21
10:00 NE 11 Light Snow 11 101.1 -12 78 -15 -21
9:00 NE 9 Light Snow 8 101.1 -12 80 -15 -20
8:00 NNE 7 gust 16 Light Snow 3 101.0 -12 82 -15 -19
7:00 NNE 8 Light Snow 2 101.0 -11 82 -14 -18
6:00 NNE 6 Light Snow 2 100.9 -11 85 -13 -17
5:00 NNE 7 N/A N/A 100.9 -10 85 -12 -16
4:00 NNE 6 N/A N/A 100.9 -9 85 -11 -15
3:00 N 5 N/A N/A 100.9 -8 88 -10 -13
2:00 NNE 5 N/A N/A 100.9 -6 88 -8 -11
1:00 WSW 5 N/A N/A 100.8 -4 87 -6 -8
0:00 SW 5 N/A N/A 100.9 -4 89 -6 -8
04 February 2023
23:00 SW 8 N/A N/A 100.9 -5 90 -6 -10
22:00 SW 11 N/A N/A 100.9 -5 89 -6 -11
21:00 SW 8 gust 15 N/A N/A 100.9 -5 88 -7 -10
20:00 SW 10 gust 18 N/A N/A 100.9 -5 89 -7 -11
19:00 SW 9 Light Snow 2 100.9 -6 91 -7 -12
18:00 SW 9 Light Snow 5 100.9 -6 88 -8 -12

Zoom-in to make a selection

Map of Great Lakes - Lake Superior marine weather areas Mid Superior - 45001 East Superior - 45004 West Superior - 45006 Slate Island - 45136 Lake Of the Woods - 45148 Kenora Airport Royal Island Armstrong Airport Caribou Island Marathon Airport Pukaskwa National Park Thunder Bay Airport Welcome Island Little Flatland Island Sault Ste. Marie Airport Wawa Airport
Legend:
buoy Buoy
land station Land Station

Great Lakes - Lake Superior Area

Another Region

What we are doing

Date modified: